Time;durP1;ratioP1;P1;durP2;ratioP2;P2;SDS_P1;SDS_P2;PMS_P1;PMS_P2;Temp;Humidity;BMP_temperature;BMP_pressure;BME280_temperature;BME280_humidity;BME280_pressure;Samples;Min_cycle;Max_cycle;Signal;HPM_P1;HPM_P2
2022/10/20 00:01:35;;;;;;;8.33;5.67;;;;;;;;;;5053820;28;20531;-69
2022/10/20 00:04:00;;;;;;;7.97;4.80;;;;;;;;;;5050129;28;20214;-69
2022/10/20 00:06:27;;;;;;;7.77;5.13;;;;;;;;;;5051570;28;20417;-70
2022/10/20 00:08:54;;;;;;;7.10;5.00;;;;;;;;;;5049136;28;20446;-68
2022/10/20 00:11:20;;;;;;;7.50;5.43;;;;;;;;;;5043170;28;20683;-69
2022/10/20 00:13:45;;;;;;;8.33;5.90;;;;;;;;;;5047641;28;20223;-69
2022/10/20 00:16:11;;;;;;;7.37;4.73;;;;;;;;;;5050086;28;20660;-68
2022/10/20 00:18:37;;;;;;;7.00;4.93;;;;;;;;;;5046825;28;20199;-68
2022/10/20 00:21:09;;;;;;;6.50;4.77;;;;;;;;;;5045192;28;20182;-70
2022/10/20 00:23:34;;;;;;;7.00;4.60;;;;;;;;;;5040126;28;20213;-68
2022/10/20 00:26:04;;;;;;;8.17;5.60;;;;;;;;;;5048674;28;20235;-70
2022/10/20 00:28:29;;;;;;;7.27;5.53;;;;;;;;;;5047480;28;20193;-67
2022/10/20 00:30:55;;;;;;;9.23;6.43;;;;;;;;;;5043543;28;20205;-68
2022/10/20 00:33:20;;;;;;;8.00;5.53;;;;;;;;;;5047476;28;20327;-68
2022/10/20 00:35:45;;;;;;;11.70;5.43;;;;;;;;;;5034285;28;20254;-68
2022/10/20 00:38:11;;;;;;;7.57;5.23;;;;;;;;;;5048980;28;20314;-68
2022/10/20 00:40:36;;;;;;;8.40;5.13;;;;;;;;;;5045207;28;21308;-68
2022/10/20 00:43:01;;;;;;;7.87;5.37;;;;;;;;;;5044544;28;20208;-68
2022/10/20 00:45:26;;;;;;;7.30;5.77;;;;;;;;;;5047617;28;20170;-68
2022/10/20 00:47:54;;;;;;;7.63;5.80;;;;;;;;;;5039715;28;20192;-68
2022/10/20 00:50:19;;;;;;;7.07;5.50;;;;;;;;;;5039845;28;20209;-68
2022/10/20 00:52:45;;;;;;;9.07;5.23;;;;;;;;;;5040341;28;20206;-67
2022/10/20 00:55:11;;;;;;;8.23;6.10;;;;;;;;;;5039849;28;20228;-70
2022/10/20 00:57:37;;;;;;;7.47;5.83;;;;;;;;;;5043347;28;20285;-69
2022/10/20 01:00:03;;;;;;;7.27;5.40;;;;;;;;;;5040771;28;20181;-69
2022/10/20 01:02:29;;;;;;;13.17;6.83;;;;;;;;;;5041536;28;20547;-68
2022/10/20 01:04:54;;;;;;;6.53;4.93;;;;;;;;;;5049517;28;20260;-68
2022/10/20 01:07:19;;;;;;;8.30;5.50;;;;;;;;;;5046690;28;20216;-68
2022/10/20 01:09:44;;;;;;;10.03;5.50;;;;;;;;;;5043868;28;20197;-68
2022/10/20 01:12:28;;;;;;;10.17;6.37;;;;;;;;;;5050206;28;20552;-68
2022/10/20 01:15:02;;;;;;;10.93;5.97;;;;;;;;;;5047060;28;20204;-68
2022/10/20 01:17:36;;;;;;;8.23;6.07;;;;;;;;;;5044841;28;20177;-68
2022/10/20 01:20:01;;;;;;;7.23;5.43;;;;;;;;;;5046207;28;20177;-68
2022/10/20 01:22:32;;;;;;;10.57;6.53;;;;;;;;;;5049728;28;20192;-68
2022/10/20 01:25:16;;;;;;;10.10;5.63;;;;;;;;;;5043221;28;20239;-68
2022/10/20 01:27:43;;;;;;;9.60;5.83;;;;;;;;;;5032685;28;20725;-68
2022/10/20 01:30:19;;;;;;;7.40;5.80;;;;;;;;;;5044180;28;20587;-70
2022/10/20 01:32:47;;;;;;;12.33;6.47;;;;;;;;;;5040708;28;20275;-70
2022/10/20 01:35:25;;;;;;;8.40;5.97;;;;;;;;;;5045270;28;20166;-70
2022/10/20 01:37:53;;;;;;;13.30;7.47;;;;;;;;;;5045452;28;20540;-69
2022/10/20 01:40:30;;;;;;;9.27;5.90;;;;;;;;;;5047973;28;20552;-69
2022/10/20 01:42:57;;;;;;;9.27;6.30;;;;;;;;;;5045534;28;20213;-67
2022/10/20 01:45:23;;;;;;;10.90;6.43;;;;;;;;;;5040751;28;20247;-68
2022/10/20 01:47:50;;;;;;;11.10;7.60;;;;;;;;;;5038038;28;20184;-69
2022/10/20 01:50:16;;;;;;;9.07;5.93;;;;;;;;;;5040500;28;20284;-69
2022/10/20 01:52:41;;;;;;;10.77;6.80;;;;;;;;;;5042973;28;20766;-69
2022/10/20 01:55:13;;;;;;;12.53;7.10;;;;;;;;;;5044453;28;20201;-70
2022/10/20 01:57:47;;;;;;;10.50;7.00;;;;;;;;;;5041734;28;20541;-68
2022/10/20 02:00:13;;;;;;;10.73;6.83;;;;;;;;;;5041080;28;20201;-68
2022/10/20 02:02:56;;;;;;;8.57;6.63;;;;;;;;;;5036293;28;20178;-68
2022/10/20 02:05:27;;;;;;;10.90;6.57;;;;;;;;;;5041076;28;20232;-68
2022/10/20 02:07:54;;;;;;;11.23;7.17;;;;;;;;;;5040908;28;20204;-68
2022/10/20 02:10:21;;;;;;;11.73;7.13;;;;;;;;;;5039612;28;20194;-68
2022/10/20 02:12:49;;;;;;;12.13;6.80;;;;;;;;;;5041260;28;20194;-69
2022/10/20 02:15:18;;;;;;;11.53;6.73;;;;;;;;;;5040888;28;20219;-68
2022/10/20 02:17:44;;;;;;;8.50;6.77;;;;;;;;;;5043906;28;20166;-68
2022/10/20 02:20:09;;;;;;;10.30;6.77;;;;;;;;;;5045022;28;20307;-68
2022/10/20 02:22:35;;;;;;;11.47;6.73;;;;;;;;;;5044474;28;20234;-68
2022/10/20 02:25:00;;;;;;;13.03;7.07;;;;;;;;;;5043003;28;20707;-68
2022/10/20 02:27:31;;;;;;;10.30;6.53;;;;;;;;;;5037903;28;20192;-68
2022/10/20 02:30:01;;;;;;;13.13;7.53;;;;;;;;;;5039946;28;20212;-68
2022/10/20 02:32:26;;;;;;;11.67;6.93;;;;;;;;;;5038649;28;20182;-68
2022/10/20 02:34:52;;;;;;;12.03;6.50;;;;;;;;;;5037954;28;20289;-68
2022/10/20 02:37:17;;;;;;;14.47;7.63;;;;;;;;;;5044967;28;20182;-67
2022/10/20 02:39:42;;;;;;;11.43;7.33;;;;;;;;;;5047849;28;20627;-68
2022/10/20 02:42:07;;;;;;;14.27;8.20;;;;;;;;;;5041139;28;20183;-68
2022/10/20 02:44:33;;;;;;;18.03;8.77;;;;;;;;;;5045931;28;20595;-67
2022/10/20 02:46:58;;;;;;;10.70;7.90;;;;;;;;;;5047213;28;20253;-68
2022/10/20 02:49:24;;;;;;;9.27;7.33;;;;;;;;;;5039951;28;20186;-68
2022/10/20 02:51:49;;;;;;;9.70;6.63;;;;;;;;;;5039774;28;20636;-69
2022/10/20 02:54:14;;;;;;;12.80;7.43;;;;;;;;;;5043640;28;20197;-68
2022/10/20 02:56:39;;;;;;;13.13;8.63;;;;;;;;;;5044566;28;20658;-68
2022/10/20 02:59:05;;;;;;;12.47;8.77;;;;;;;;;;5042738;28;20224;-70
2022/10/20 03:01:30;;;;;;;11.53;7.10;;;;;;;;;;5046576;28;20253;-67
2022/10/20 03:03:58;;;;;;;13.83;8.27;;;;;;;;;;5044554;28;20214;-67
2022/10/20 03:06:23;;;;;;;11.20;7.33;;;;;;;;;;5042024;28;20268;-67
2022/10/20 03:08:49;;;;;;;15.73;8.63;;;;;;;;;;5039832;28;20613;-70
2022/10/20 03:11:14;;;;;;;14.30;8.40;;;;;;;;;;5049815;28;20197;-68
2022/10/20 03:13:39;;;;;;;11.57;8.13;;;;;;;;;;5046501;28;20198;-68
2022/10/20 03:16:05;;;;;;;14.87;8.90;;;;;;;;;;5058976;28;20177;-68
2022/10/20 03:18:30;;;;;;;13.70;8.47;;;;;;;;;;5035749;28;20181;-68
2022/10/20 03:20:55;;;;;;;14.37;8.50;;;;;;;;;;5036005;28;20187;-69
2022/10/20 03:23:20;;;;;;;22.13;9.03;;;;;;;;;;5057866;22;20314;-71
2022/10/20 03:25:46;;;;;;;17.07;9.30;;;;;;;;;;5045857;28;20178;-71
2022/10/20 03:28:11;;;;;;;13.67;9.80;;;;;;;;;;5050862;28;20178;-71
2022/10/20 03:30:36;;;;;;;16.13;8.80;;;;;;;;;;5050327;28;20300;-71
2022/10/20 03:33:01;;;;;;;14.73;9.33;;;;;;;;;;5052245;28;20197;-71
2022/10/20 03:35:26;;;;;;;16.93;9.40;;;;;;;;;;5038012;28;20166;-71
2022/10/20 03:37:52;;;;;;;13.43;9.87;;;;;;;;;;5031194;28;20173;-71
2022/10/20 03:40:17;;;;;;;15.07;8.90;;;;;;;;;;5028425;28;20208;-71
2022/10/20 03:42:42;;;;;;;12.63;9.10;;;;;;;;;;5029800;28;20246;-71
2022/10/20 03:45:08;;;;;;;16.90;9.37;;;;;;;;;;5031044;28;20182;-72
2022/10/20 03:47:33;;;;;;;16.43;10.00;;;;;;;;;;5032912;28;20189;-73
2022/10/20 03:49:58;;;;;;;14.33;10.07;;;;;;;;;;5031323;28;20293;-71
2022/10/20 03:52:23;;;;;;;20.77;9.70;;;;;;;;;;5034651;28;20206;-71
2022/10/20 03:54:48;;;;;;;14.90;9.33;;;;;;;;;;5024376;28;20269;-71
2022/10/20 03:57:14;;;;;;;14.77;9.77;;;;;;;;;;5027804;28;20254;-71
2022/10/20 03:59:39;;;;;;;16.73;9.97;;;;;;;;;;5025831;28;20209;-71
2022/10/20 04:02:04;;;;;;;13.23;9.77;;;;;;;;;;5030709;28;20213;-71
2022/10/20 04:04:29;;;;;;;13.10;8.73;;;;;;;;;;5030050;28;20225;-71
2022/10/20 04:06:54;;;;;;;14.27;8.87;;;;;;;;;;5029134;28;20221;-71
2022/10/20 04:09:20;;;;;;;16.80;8.77;;;;;;;;;;5028774;28;20776;-71
2022/10/20 04:11:45;;;;;;;15.87;9.43;;;;;;;;;;5035864;28;20277;-72
2022/10/20 04:14:10;;;;;;;12.23;8.50;;;;;;;;;;5030235;28;20213;-71
2022/10/20 04:16:35;;;;;;;14.20;8.13;;;;;;;;;;5027705;28;20175;-71
2022/10/20 04:19:01;;;;;;;16.13;9.90;;;;;;;;;;5027525;28;20712;-74
2022/10/20 04:21:26;;;;;;;13.63;8.70;;;;;;;;;;5030442;28;20175;-70
2022/10/20 04:23:51;;;;;;;11.53;8.30;;;;;;;;;;5032845;28;20201;-71
2022/10/20 04:26:16;;;;;;;13.60;8.47;;;;;;;;;;5025912;28;20175;-71
2022/10/20 04:28:42;;;;;;;13.67;8.63;;;;;;;;;;5031982;28;20178;-71
2022/10/20 04:31:07;;;;;;;15.93;9.40;;;;;;;;;;5023502;28;20552;-71
2022/10/20 04:33:33;;;;;;;12.43;8.43;;;;;;;;;;5029615;28;20570;-71
2022/10/20 04:35:59;;;;;;;16.53;7.93;;;;;;;;;;5032274;28;20186;-71
2022/10/20 04:38:24;;;;;;;12.40;8.30;;;;;;;;;;5022223;28;20640;-71
2022/10/20 04:40:53;;;;;;;14.47;9.77;;;;;;;;;;5028118;28;20189;-71
2022/10/20 04:43:18;;;;;;;15.00;8.50;;;;;;;;;;5030699;28;20701;-71
2022/10/20 04:45:43;;;;;;;16.93;10.70;;;;;;;;;;5027695;28;20268;-71
2022/10/20 04:48:08;;;;;;;12.53;8.87;;;;;;;;;;5026226;28;20263;-75
2022/10/20 04:50:33;;;;;;;17.87;11.33;;;;;;;;;;5020663;28;20245;-72
2022/10/20 04:52:59;;;;;;;13.83;9.80;;;;;;;;;;5029821;28;20193;-72
2022/10/20 04:55:24;;;;;;;11.20;8.37;;;;;;;;;;5020717;28;20520;-72
2022/10/20 04:57:49;;;;;;;20.30;9.50;;;;;;;;;;5029940;28;20201;-72
2022/10/20 05:00:14;;;;;;;14.07;9.37;;;;;;;;;;5027391;28;20182;-73
2022/10/20 05:02:39;;;;;;;13.93;9.17;;;;;;;;;;5023567;28;20656;-72
2022/10/20 05:05:05;;;;;;;12.77;9.13;;;;;;;;;;5021657;28;20637;-72
2022/10/20 05:07:30;;;;;;;11.90;8.67;;;;;;;;;;5027076;28;20186;-72
2022/10/20 05:09:55;;;;;;;14.90;8.83;;;;;;;;;;5022830;28;20205;-72
2022/10/20 05:12:20;;;;;;;13.27;8.70;;;;;;;;;;5020764;28;20197;-72
2022/10/20 05:14:46;;;;;;;12.10;8.80;;;;;;;;;;5022978;28;20649;-70
2022/10/20 05:17:11;;;;;;;17.57;9.57;;;;;;;;;;5020822;28;20621;-73
2022/10/20 05:19:36;;;;;;;14.97;9.47;;;;;;;;;;5028988;28;20178;-72
2022/10/20 05:22:01;;;;;;;11.33;8.53;;;;;;;;;;5024513;28;20695;-72
2022/10/20 05:24:27;;;;;;;14.03;8.13;;;;;;;;;;5032049;28;20210;-72
2022/10/20 05:26:52;;;;;;;13.07;9.77;;;;;;;;;;5029344;28;20186;-72
2022/10/20 05:29:17;;;;;;;15.00;9.10;;;;;;;;;;5028083;28;20552;-72
2022/10/20 05:31:43;;;;;;;14.23;9.80;;;;;;;;;;5022301;28;20205;-72
2022/10/20 05:34:09;;;;;;;16.40;10.10;;;;;;;;;;5025848;28;20211;-72
2022/10/20 05:36:34;;;;;;;12.57;8.63;;;;;;;;;;5029661;28;20178;-72
2022/10/20 05:38:59;;;;;;;12.20;8.90;;;;;;;;;;5019984;28;20179;-72
2022/10/20 05:41:28;;;;;;;20.70;8.97;;;;;;;;;;5031380;28;20716;-72
2022/10/20 05:43:58;;;;;;;12.53;8.70;;;;;;;;;;5019399;28;20278;-72
2022/10/20 05:46:24;;;;;;;15.73;10.50;;;;;;;;;;5031503;28;20181;-72
2022/10/20 05:48:51;;;;;;;12.40;9.20;;;;;;;;;;5028640;28;20178;-72
2022/10/20 05:51:17;;;;;;;12.53;9.50;;;;;;;;;;5036047;28;20210;-72
2022/10/20 05:53:43;;;;;;;14.57;9.33;;;;;;;;;;5019826;28;20241;-72
2022/10/20 05:56:11;;;;;;;12.83;9.33;;;;;;;;;;5016257;28;20175;-71
2022/10/20 05:58:37;;;;;;;11.93;8.30;;;;;;;;;;5027137;28;20171;-71
2022/10/20 06:01:09;;;;;;;14.53;9.70;;;;;;;;;;5020539;28;20241;-72
2022/10/20 06:03:35;;;;;;;13.80;9.30;;;;;;;;;;5033777;28;20198;-73
2022/10/20 06:06:00;;;;;;;12.03;9.47;;;;;;;;;;5019877;28;20238;-72
2022/10/20 06:08:30;;;;;;;12.03;8.90;;;;;;;;;;5028522;28;20173;-72
2022/10/20 06:10:55;;;;;;;13.20;9.07;;;;;;;;;;5043563;28;20210;-72
2022/10/20 06:13:20;;;;;;;14.50;8.83;;;;;;;;;;5031461;28;20201;-72
2022/10/20 06:15:47;;;;;;;15.90;9.53;;;;;;;;;;5039344;28;20637;-72
2022/10/20 06:18:13;;;;;;;14.90;9.77;;;;;;;;;;5044787;28;20169;-73
2022/10/20 06:20:38;;;;;;;14.27;9.30;;;;;;;;;;5034114;28;20565;-72
2022/10/20 06:23:03;;;;;;;15.40;9.70;;;;;;;;;;5040462;28;20280;-72
2022/10/20 06:25:28;;;;;;;16.43;9.90;;;;;;;;;;5035660;28;20178;-72
2022/10/20 06:27:53;;;;;;;15.60;9.33;;;;;;;;;;5034381;28;20175;-72
2022/10/20 06:30:19;;;;;;;17.90;10.33;;;;;;;;;;5043606;28;20571;-72
2022/10/20 06:32:44;;;;;;;13.73;9.60;;;;;;;;;;5042211;28;20165;-72
2022/10/20 06:35:09;;;;;;;15.73;9.93;;;;;;;;;;5040016;28;20679;-72
2022/10/20 06:37:35;;;;;;;13.50;9.10;;;;;;;;;;5037132;28;20190;-72
2022/10/20 06:40:00;;;;;;;14.33;9.87;;;;;;;;;;5056153;28;20181;-72
2022/10/20 06:42:25;;;;;;;11.93;9.03;;;;;;;;;;5036341;28;20178;-72
2022/10/20 06:44:50;;;;;;;15.67;10.50;;;;;;;;;;5031847;28;20198;-72
2022/10/20 06:47:16;;;;;;;17.80;10.53;;;;;;;;;;5033619;28;20261;-72
2022/10/20 06:49:41;;;;;;;13.77;9.50;;;;;;;;;;5037062;28;20627;-72
2022/10/20 06:52:06;;;;;;;14.03;9.57;;;;;;;;;;5051911;28;20185;-72
2022/10/20 06:54:31;;;;;;;12.70;9.60;;;;;;;;;;5028974;28;20202;-72
2022/10/20 06:56:56;;;;;;;16.83;10.87;;;;;;;;;;5031436;28;20190;-72
2022/10/20 06:59:21;;;;;;;16.90;9.47;;;;;;;;;;5034678;28;20174;-72
2022/10/20 07:01:47;;;;;;;15.90;9.30;;;;;;;;;;5030006;28;20698;-72
2022/10/20 07:04:13;;;;;;;13.53;9.23;;;;;;;;;;5041198;28;20312;-72
2022/10/20 07:06:39;;;;;;;14.70;9.47;;;;;;;;;;5035963;28;20533;-72
2022/10/20 07:09:10;;;;;;;16.97;10.03;;;;;;;;;;5032513;28;20672;-72
2022/10/20 07:11:35;;;;;;;15.50;9.93;;;;;;;;;;5031671;28;20687;-72
2022/10/20 07:14:01;;;;;;;14.67;10.03;;;;;;;;;;5038246;28;20193;-72
2022/10/20 07:16:27;;;;;;;13.33;9.57;;;;;;;;;;5037032;28;20701;-72
2022/10/20 07:18:52;;;;;;;14.87;10.33;;;;;;;;;;5043826;28;20177;-72
2022/10/20 07:21:20;;;;;;;16.03;10.30;;;;;;;;;;5036104;28;20171;-72
2022/10/20 07:23:46;;;;;;;15.93;9.93;;;;;;;;;;5040099;28;20752;-72
2022/10/20 07:26:21;;;;;;;13.03;9.60;;;;;;;;;;5030178;28;20174;-72
2022/10/20 07:28:49;;;;;;;14.97;9.83;;;;;;;;;;5036768;28;20179;-72
2022/10/20 07:31:16;;;;;;;15.40;10.27;;;;;;;;;;5032219;28;20198;-72
2022/10/20 07:33:41;;;;;;;11.20;9.17;;;;;;;;;;5026842;28;20574;-72
2022/10/20 07:36:14;;;;;;;15.73;10.13;;;;;;;;;;5021894;28;20174;-72
2022/10/20 07:38:39;;;;;;;12.00;9.10;;;;;;;;;;5030387;28;20190;-72
2022/10/20 07:41:04;;;;;;;13.13;10.20;;;;;;;;;;5024034;28;20783;-72
2022/10/20 07:43:29;;;;;;;13.33;9.20;;;;;;;;;;5031532;28;20202;-72
2022/10/20 07:45:54;;;;;;;14.93;9.40;;;;;;;;;;5033378;28;20190;-72
2022/10/20 07:48:20;;;;;;;13.40;9.47;;;;;;;;;;5026552;28;20175;-72
2022/10/20 07:50:45;;;;;;;13.33;9.27;;;;;;;;;;5032909;28;20292;-72
2022/10/20 07:53:10;;;;;;;10.40;8.13;;;;;;;;;;5036401;28;20197;-72
2022/10/20 07:55:35;;;;;;;12.20;8.80;;;;;;;;;;5033224;28;20177;-72
2022/10/20 07:58:00;;;;;;;13.43;9.40;;;;;;;;;;5038221;28;20231;-73
2022/10/20 08:00:26;;;;;;;15.57;9.00;;;;;;;;;;5042760;28;20659;-72
2022/10/20 08:02:51;;;;;;;13.07;8.47;;;;;;;;;;5043043;28;20268;-72
2022/10/20 08:05:16;;;;;;;15.27;8.90;;;;;;;;;;5043716;28;20173;-73
2022/10/20 08:07:41;;;;;;;14.57;9.93;;;;;;;;;;5032092;28;20189;-72
2022/10/20 08:10:07;;;;;;;12.55;8.93;;;;;;;;;;5030414;28;20238;-72
2022/10/20 08:12:32;;;;;;;15.07;8.82;;;;;;;;;;5031840;28;20174;-73
2022/10/20 08:14:57;;;;;;;12.50;9.70;;;;;;;;;;5037512;28;20224;-72
2022/10/20 08:17:22;;;;;;;16.50;9.50;;;;;;;;;;5040900;28;20261;-71
2022/10/20 08:19:47;;;;;;;13.73;9.05;;;;;;;;;;5042987;28;20295;-71
2022/10/20 08:22:13;;;;;;;13.80;9.02;;;;;;;;;;5044055;28;20185;-71
2022/10/20 08:24:38;;;;;;;16.85;9.55;;;;;;;;;;5035521;28;20255;-73
2022/10/20 08:27:03;;;;;;;14.27;9.60;;;;;;;;;;5030213;28;20320;-73
2022/10/20 08:29:29;;;;;;;13.38;9.50;;;;;;;;;;5042738;28;20264;-73
2022/10/20 08:31:54;;;;;;;15.52;10.40;;;;;;;;;;5034244;28;20507;-74
2022/10/20 08:34:19;;;;;;;14.20;8.95;;;;;;;;;;5041017;28;20200;-74
2022/10/20 08:36:44;;;;;;;12.00;9.60;;;;;;;;;;5036733;28;20170;-73
2022/10/20 08:39:10;;;;;;;14.20;9.75;;;;;;;;;;5031836;28;20183;-73
2022/10/20 08:41:37;;;;;;;15.02;9.43;;;;;;;;;;5027881;28;20237;-73
2022/10/20 08:44:04;;;;;;;15.27;9.52;;;;;;;;;;5037787;28;20213;-72
2022/10/20 08:46:32;;;;;;;11.50;8.95;;;;;;;;;;5040674;28;20190;-73
2022/10/20 08:48:58;;;;;;;14.20;9.65;;;;;;;;;;5035440;28;20257;-71
2022/10/20 08:51:24;;;;;;;11.70;9.43;;;;;;;;;;5035925;28;20291;-71
2022/10/20 08:53:50;;;;;;;14.70;9.20;;;;;;;;;;5052992;28;20190;-71
2022/10/20 08:56:18;;;;;;;11.88;9.18;;;;;;;;;;5030606;28;20190;-72
2022/10/20 08:58:45;;;;;;;10.57;8.85;;;;;;;;;;5042611;28;20691;-71
2022/10/20 09:01:16;;;;;;;14.85;9.20;;;;;;;;;;5038749;28;20178;-73
2022/10/20 09:03:41;;;;;;;16.30;10.05;;;;;;;;;;5042453;28;20569;-71
2022/10/20 09:06:16;;;;;;;10.85;9.13;;;;;;;;;;5035420;28;20253;-73
2022/10/20 09:08:42;;;;;;;11.73;9.57;;;;;;;;;;5030135;28;20169;-73
2022/10/20 09:11:10;;;;;;;11.48;9.02;;;;;;;;;;5031234;28;20579;-71
2022/10/20 09:13:36;;;;;;;10.98;9.27;;;;;;;;;;5059518;28;20229;-72
2022/10/20 09:16:10;;;;;;;14.40;9.43;;;;;;;;;;5024033;28;20554;-71
2022/10/20 09:18:35;;;;;;;14.30;9.50;;;;;;;;;;5022087;28;20227;-71
2022/10/20 09:21:20;;;;;;;15.77;10.32;;;;;;;;;;5025061;28;20199;-72
2022/10/20 09:23:48;;;;;;;13.90;9.93;;;;;;;;;;5041468;22;20684;-67
2022/10/20 09:26:18;;;;;;;23.38;10.70;;;;;;;;;;5045290;28;20288;-67
2022/10/20 09:28:47;;;;;;;13.95;10.35;;;;;;;;;;5037409;28;20166;-67
2022/10/20 09:31:21;;;;;;;12.93;9.65;;;;;;;;;;5043939;28;20198;-67
2022/10/20 09:33:46;;;;;;;12.02;9.15;;;;;;;;;;5029723;28;20228;-67
2022/10/20 09:36:13;;;;;;;11.15;9.60;;;;;;;;;;5029509;28;20170;-67
2022/10/20 09:38:41;;;;;;;17.88;10.70;;;;;;;;;;5029918;28;20284;-67
2022/10/20 09:41:10;;;;;;;15.27;9.88;;;;;;;;;;5023949;28;20543;-67
2022/10/20 09:43:39;;;;;;;12.30;10.07;;;;;;;;;;5029800;28;20273;-67
2022/10/20 09:46:06;;;;;;;19.02;10.50;;;;;;;;;;5027683;28;20178;-67
2022/10/20 09:48:33;;;;;;;13.15;9.93;;;;;;;;;;5028294;28;20660;-67
2022/10/20 09:50:59;;;;;;;12.23;9.65;;;;;;;;;;5028904;28;20690;-67
2022/10/20 09:53:47;;;;;;;13.57;8.90;;;;;;;;;;5027471;28;20280;-67
2022/10/20 09:56:21;;;;;;;14.43;9.98;;;;;;;;;;5026126;28;20231;-67
2022/10/20 09:58:46;;;;;;;14.82;10.73;;;;;;;;;;5027386;28;20186;-67
2022/10/20 10:01:13;;;;;;;13.18;10.48;;;;;;;;;;5027012;28;20612;-67
2022/10/20 10:03:39;;;;;;;12.20;9.40;;;;;;;;;;5029734;28;20217;-67
2022/10/20 10:06:18;;;;;;;13.20;9.27;;;;;;;;;;5028528;28;20182;-67
2022/10/20 10:08:44;;;;;;;12.77;9.68;;;;;;;;;;5023364;28;20184;-67
2022/10/20 10:11:13;;;;;;;12.15;10.15;;;;;;;;;;5027876;28;20700;-67
2022/10/20 10:13:41;;;;;;;12.10;9.65;;;;;;;;;;5029823;28;20198;-67
2022/10/20 10:16:08;;;;;;;13.18;9.63;;;;;;;;;;5028081;28;20262;-67
2022/10/20 10:18:34;;;;;;;14.00;8.80;;;;;;;;;;5028919;28;20261;-67
2022/10/20 10:21:01;;;;;;;15.63;9.90;;;;;;;;;;5028895;28;20205;-67
2022/10/20 10:23:28;;;;;;;16.50;9.93;;;;;;;;;;5029282;28;20214;-67
2022/10/20 10:25:53;;;;;;;14.02;9.90;;;;;;;;;;5027587;28;20174;-67
2022/10/20 10:28:37;;;;;;;16.67;11.00;;;;;;;;;;5028479;28;20182;-67
2022/10/20 10:31:23;;;;;;;13.85;9.85;;;;;;;;;;5024512;28;20423;-67
2022/10/20 10:33:50;;;;;;;15.73;10.57;;;;;;;;;;5025331;28;20198;-67
2022/10/20 10:36:27;;;;;;;14.25;10.07;;;;;;;;;;5029548;28;20202;-67
2022/10/20 10:38:52;;;;;;;17.33;10.50;;;;;;;;;;5026800;28;20308;-67
2022/10/20 10:41:24;;;;;;;14.40;10.57;;;;;;;;;;5024895;28;20188;-67
2022/10/20 10:44:11;;;;;;;15.13;10.50;;;;;;;;;;5025755;28;20202;-67
2022/10/20 10:46:41;;;;;;;16.27;10.35;;;;;;;;;;5028641;28;20174;-67
2022/10/20 10:49:21;;;;;;;13.75;10.57;;;;;;;;;;5029069;28;20648;-67
2022/10/20 10:51:58;;;;;;;13.70;10.50;;;;;;;;;;5026128;28;20202;-67
2022/10/20 10:54:26;;;;;;;22.80;12.10;;;;;;;;;;5023941;28;20198;-68
2022/10/20 10:57:13;;;;;;;13.30;10.05;;;;;;;;;;5022326;28;20210;-68
2022/10/20 10:59:41;;;;;;;17.95;10.25;;;;;;;;;;5030611;28;20236;-68
2022/10/20 11:02:15;;;;;;;18.27;10.93;;;;;;;;;;5031629;28;20262;-68
2022/10/20 11:05:16;;;;;;;13.35;11.13;;;;;;;;;;5031988;28;20255;-69
2022/10/20 11:08:19;;;;;;;13.93;11.18;;;;;;;;;;4951927;29;20279;-68
2022/10/20 11:10:49;;;;;;;17.80;11.05;;;;;;;;;;4944892;29;20208;-68
2022/10/20 11:13:30;;;;;;;15.77;11.40;;;;;;;;;;4942064;29;20197;-68
2022/10/20 11:16:00;;;;;;;14.50;11.30;;;;;;;;;;4995480;28;20711;-69
2022/10/20 11:18:41;;;;;;;13.38;11.15;;;;;;;;;;5030834;28;20556;-69
2022/10/20 11:21:23;;;;;;;17.60;11.48;;;;;;;;;;5030893;28;20178;-68
2022/10/20 11:24:00;;;;;;;13.88;10.85;;;;;;;;;;5025917;28;20210;-69
2022/10/20 11:26:33;;;;;;;13.20;10.88;;;;;;;;;;5030526;28;20174;-69
2022/10/20 11:29:00;;;;;;;14.57;10.98;;;;;;;;;;5032397;28;20265;-69
2022/10/20 11:31:28;;;;;;;15.82;10.63;;;;;;;;;;5031631;28;20202;-68
2022/10/20 11:33:56;;;;;;;18.55;12.07;;;;;;;;;;5032091;28;20547;-68
2022/10/20 11:36:22;;;;;;;15.30;11.23;;;;;;;;;;5031048;28;20186;-69
2022/10/20 11:38:48;;;;;;;15.93;10.68;;;;;;;;;;5031982;28;20174;-69
2022/10/20 11:41:16;;;;;;;15.83;11.27;;;;;;;;;;5026210;28;20185;-69
2022/10/20 11:43:44;;;;;;;15.02;11.32;;;;;;;;;;5029036;28;20878;-69
2022/10/20 11:46:26;;;;;;;17.63;11.95;;;;;;;;;;5031351;28;20179;-69
2022/10/20 11:48:53;;;;;;;18.05;12.05;;;;;;;;;;5026529;28;20217;-69
2022/10/20 11:51:30;;;;;;;32.35;12.88;;;;;;;;;;5026501;28;20202;-69
2022/10/20 11:54:13;;;;;;;20.23;11.18;;;;;;;;;;5031327;28;20268;-69
2022/10/20 11:56:51;;;;;;;14.38;10.60;;;;;;;;;;5028696;28;20185;-69
2022/10/20 11:59:22;;;;;;;14.48;11.85;;;;;;;;;;5031479;28;20664;-69
2022/10/20 12:02:06;;;;;;;17.17;11.35;;;;;;;;;;5028536;28;20312;-69
2022/10/20 12:04:40;;;;;;;16.20;11.02;;;;;;;;;;5029317;28;20205;-69
2022/10/20 12:07:05;;;;;;;20.33;12.43;;;;;;;;;;5028651;28;20177;-69
2022/10/20 12:09:30;;;;;;;13.07;10.68;;;;;;;;;;5030715;28;20289;-69
2022/10/20 12:12:00;;;;;;;20.80;12.60;;;;;;;;;;5029180;28;20209;-69
2022/10/20 12:14:41;;;;;;;13.93;11.32;;;;;;;;;;5029404;28;20440;-69
2022/10/20 12:17:17;;;;;;;15.48;11.95;;;;;;;;;;5031884;28;20205;-69
2022/10/20 12:19:43;;;;;;;18.88;10.88;;;;;;;;;;5027470;28;20220;-69
2022/10/20 12:22:14;;;;;;;15.50;10.48;;;;;;;;;;5028536;28;20163;-68
2022/10/20 12:25:02;;;;;;;15.98;11.48;;;;;;;;;;5029930;28;20209;-69
2022/10/20 12:27:27;;;;;;;15.90;11.63;;;;;;;;;;5030858;28;20602;-69
2022/10/20 12:29:54;;;;;;;18.70;11.60;;;;;;;;;;5031024;28;20315;-69
2022/10/20 12:32:36;;;;;;;19.40;11.48;;;;;;;;;;5036007;28;20206;-69
2022/10/20 12:35:21;;;;;;;14.20;10.82;;;;;;;;;;5026482;28;20278;-69
2022/10/20 12:38:02;;;;;;;19.35;12.10;;;;;;;;;;5027676;28;20175;-69
2022/10/20 12:40:30;;;;;;;15.45;10.52;;;;;;;;;;5027888;28;20178;-69
2022/10/20 12:42:55;;;;;;;14.68;11.05;;;;;;;;;;5026985;28;20209;-69
2022/10/20 12:45:47;;;;;;;15.30;11.95;;;;;;;;;;5026383;28;20280;-69
2022/10/20 12:48:19;;;;;;;17.75;11.93;;;;;;;;;;5027823;28;20194;-69
2022/10/20 12:50:45;;;;;;;18.80;12.30;;;;;;;;;;5030502;28;20328;-69
2022/10/20 12:53:16;;;;;;;20.67;12.00;;;;;;;;;;5028950;28;21914;-69
2022/10/20 12:55:43;;;;;;;18.95;12.45;;;;;;;;;;5031161;28;20170;-69
2022/10/20 12:58:09;;;;;;;15.73;11.75;;;;;;;;;;5031174;28;20182;-69
2022/10/20 13:00:34;;;;;;;15.90;11.45;;;;;;;;;;5030111;28;20205;-69
2022/10/20 13:02:59;;;;;;;16.13;11.47;;;;;;;;;;5030734;28;20189;-69
2022/10/20 13:05:39;;;;;;;14.13;10.68;;;;;;;;;;5030873;28;20403;-69
2022/10/20 13:08:20;;;;;;;14.63;10.88;;;;;;;;;;5030841;28;20203;-69
2022/10/20 13:10:45;;;;;;;14.35;11.00;;;;;;;;;;5026741;28;20202;-69
2022/10/20 13:13:10;;;;;;;16.15;12.02;;;;;;;;;;5029747;28;20198;-69
2022/10/20 13:15:38;;;;;;;15.67;11.37;;;;;;;;;;5030234;28;20208;-69
2022/10/20 13:18:14;;;;;;;17.35;11.25;;;;;;;;;;5030185;28;20411;-69
2022/10/20 13:20:58;;;;;;;13.98;11.23;;;;;;;;;;5030631;28;20185;-69
2022/10/20 13:23:35;;;;;;;15.88;11.15;;;;;;;;;;5027555;28;20662;-68
2022/10/20 13:26:13;;;;;;;15.52;12.70;;;;;;;;;;5026352;28;20603;-69
2022/10/20 13:28:43;;;;;;;13.80;10.75;;;;;;;;;;5030954;28;20174;-69
2022/10/20 13:31:27;;;;;;;17.73;11.93;;;;;;;;;;5029804;28;20206;-69
2022/10/20 13:34:18;;;;;;;16.23;12.60;;;;;;;;;;5030045;28;20648;-69
2022/10/20 13:36:51;;;;;;;16.05;12.45;;;;;;;;;;5007054;28;20596;-68
2022/10/20 13:39:29;;;;;;;14.25;11.27;;;;;;;;;;5029622;28;20170;-69
2022/10/20 13:42:13;;;;;;;18.98;12.75;;;;;;;;;;5027438;28;20185;-69
2022/10/20 13:44:51;;;;;;;14.73;10.82;;;;;;;;;;5026691;28;20236;-69
2022/10/20 13:47:28;;;;;;;13.13;11.00;;;;;;;;;;5029467;28;20624;-69
2022/10/20 13:50:04;;;;;;;16.55;11.85;;;;;;;;;;5029855;28;20600;-69
2022/10/20 13:52:31;;;;;;;16.55;11.77;;;;;;;;;;5030264;28;20193;-69
2022/10/20 13:54:57;;;;;;;16.85;11.73;;;;;;;;;;5030322;28;20201;-69
2022/10/20 13:57:27;;;;;;;17.52;12.15;;;;;;;;;;5030611;28;20573;-69
2022/10/20 13:59:57;;;;;;;15.68;12.82;;;;;;;;;;5028506;28;20182;-69
2022/10/20 14:02:24;;;;;;;17.35;12.20;;;;;;;;;;5027664;28;20266;-69
2022/10/20 14:05:00;;;;;;;14.65;11.52;;;;;;;;;;5029159;28;20711;-69
2022/10/20 14:07:34;;;;;;;15.25;10.80;;;;;;;;;;5030768;28;20270;-69
2022/10/20 14:09:59;;;;;;;12.52;10.40;;;;;;;;;;5029174;28;20671;-69
2022/10/20 14:12:25;;;;;;;15.93;11.37;;;;;;;;;;5029030;28;20186;-69
2022/10/20 14:14:50;;;;;;;14.13;10.98;;;;;;;;;;5033718;28;20440;-69
2022/10/20 14:17:22;;;;;;;13.20;10.40;;;;;;;;;;5030563;28;20167;-69
2022/10/20 14:19:48;;;;;;;14.57;10.57;;;;;;;;;;5030479;28;20210;-69
2022/10/20 14:22:18;;;;;;;11.88;9.68;;;;;;;;;;5030131;28;20236;-69
2022/10/20 14:24:47;;;;;;;10.90;9.15;;;;;;;;;;5023429;28;20564;-69
2022/10/20 14:27:14;;;;;;;15.68;9.90;;;;;;;;;;5028973;28;20205;-69
2022/10/20 14:29:39;;;;;;;19.88;10.32;;;;;;;;;;5028977;28;20210;-69
2022/10/20 14:32:05;;;;;;;12.77;9.35;;;;;;;;;;5030388;28;20212;-69
2022/10/20 14:34:33;;;;;;;15.15;9.82;;;;;;;;;;5031980;28;20336;-69